• Join FlightAware (Why Join?)
  • Login
  • US Flag 
04:09PM EDT


 

Airport Tracker/Info


-or-


 

Live Flight TrackerFlight Track Log ✈ UPS1214 ✈ 01-May-2013 ✈ KSDF - KBWI

Flight Track Log - Related Links

Times and Time Zones

All times are in EDT time to prevent confusion due to time zone crossing. See the UPS1214 flight status page for this flight to view local times or setup timezone preferences in your user account.

Time Position Orientation Groundspeed Altitude Reporting Facility
EDT Latitude Longitude Course Direction KTS MPH feet Rate Location/Type
04:46AM 38.1333 -85.7167 104° East 180 207 2,900  Level Louisville TRACON
04:47AM 38.0806 -85.6950 162° South 235 270 5,200 3,120 Climbing Indianapolis Center
04:48AM 38.0506 -85.6139 115° Southeast 275 316 9,300 3,240 Climbing Indianapolis Center
04:49AM 38.0453 -85.5161 94° East 281 323 11,800 2,160 Climbing Indianapolis Center
04:50AM 38.0361 -85.3844 95° East 368 423 13,700 2,340 Climbing Indianapolis Center
04:51AM 38.0531 -85.2392 82° East 423 487 16,600 3,060 Climbing Indianapolis Center
04:52AM 38.0358 -84.9454 104° East  Level FlightAware Approximate
04:53AM 38.1069 -85.0625 69° East 458 527 20,000  Level Indianapolis Center
04:54AM 38.1569 -84.9044 68° East 477 549 22,700 1,500 Climbing Indianapolis Center
04:55AM 38.2064 -84.7408 69° East 490 564 23,100 840 Climbing Indianapolis Center
04:56AM 38.2550 -84.5781 69° East 489 563 24,500 1,860 Climbing Indianapolis Center
04:57AM 38.3069 -84.4064 69° East 515 593 27,000 2,700 Climbing Indianapolis Center
04:58AM 38.3569 -84.2358 69° East 514 592 30,100 1,980 Climbing Indianapolis Center
04:59AM 38.4067 -84.0692 69° East 505 581 31,000 420 Climbing Indianapolis Center
05:00AM 38.4550 -83.9061 69° East 494 568 31,000  Level Indianapolis Center
05:01AM 38.5033 -83.7408 69° East 494 568 31,000  Level Indianapolis Center
05:02AM 38.5517 -83.5744 70° East 496 571 31,000  Level Indianapolis Center
05:03AM 38.5983 -83.4106 70° East 493 567 31,000  Level Indianapolis Center
05:04AM 38.6458 -83.2467 70° East 490 564 31,000  Level Indianapolis Center
05:05AM 38.6939 -83.0783 70° East 494 568 31,000  Level Indianapolis Center
05:06AM 38.7403 -82.9144 70° East 490 564 31,000  Level Indianapolis Center
05:07AM 38.7864 -82.7514 70° East 486 559 31,000  Level Indianapolis Center
05:08AM 38.8322 -82.5897 70° East 483 556 31,000  Level Indianapolis Center
05:09AM 38.8772 -82.4267 70° East 482 555 31,000  Level Indianapolis Center
05:10AM 38.9225 -82.2644 70° East 481 554 31,000  Level Indianapolis Center
05:11AM 38.9675 -82.0992 71° East 486 559 31,000  Level Indianapolis Center
05:12AM 39.0139 -81.9336 70° East 487 560 31,000  Level Indianapolis Center
05:13AM 39.0586 -81.7669 71° East 488 562 31,000  Level Indianapolis Center
05:14AM 39.1039 -81.6008 71° East 488 562 31,000  Level Indianapolis Center
05:15AM 39.1308 -81.4294 78° East 491 565 31,000  Level Indianapolis Center
05:16AM 39.1475 -81.2536 83° East 491 565 31,000  Level Indianapolis Center
05:17AM 39.1633 -81.0806 83° East 486 559 31,000  Level Indianapolis Center
05:18AM 39.1769 -80.9078 84° East 484 557 31,000  Level Indianapolis Center
05:19AM 39.1906 -80.7347 84° East 482 555 31,000  Level Indianapolis Center
05:20AM 39.2042 -80.5617 84° East 485 558 31,000  Level Indianapolis Center
05:21AM 39.2175 -80.3889 84° East 485 558 31,000  Level Indianapolis Center
05:22AM 39.2311 -80.2675 82° East 479 551 31,000  Level Washington Center
05:23AM 39.2439 -80.0969 84° East 479 551 31,000  Level Washington Center
05:24AM 39.2564 -79.9261 85° East 479 551 31,000  Level Washington Center
05:25AM 39.2708 -79.7553 84° East 479 551 31,000  Level Washington Center
05:26AM 39.2808 -79.5842 86° East 479 551 31,000  Level Washington Center
05:27AM 39.2947 -79.4106 84° East 479 551 31,000  Level Washington Center
05:28AM 39.3028 -79.2206 87° East 479 551 31,000  Level Washington Center
05:29AM 39.3161 -79.0469 84° East 479 551 31,000 -1,020 Level Washington Center
05:30AM 39.3250 -78.8808 86° East 473 544 29,000 -3,120 Descending Washington Center
05:31AM 39.3358 -78.7069 85° East 473 544 24,800 -3,780 Descending Washington Center
05:32AM 39.3467 -78.5303 85° East 479 551 21,700 -3,120 Descending Washington Center
05:33AM 39.3567 -78.3669 85° East 479 551 18,600 -3,000 Descending Washington Center
05:34AM 39.3664 -78.2089 85° East 458 527 15,700 -1,740 Descending Washington Center
05:35AM 39.3739 -78.0589 86° East 430 495 15,100 -360 Descending Washington Center
05:36AM 39.3869 -77.9250 83° East 422 486 15,000 -540 Descending Washington Center
05:37AM 39.4042 -77.7778 81° East 416 479 14,100 -1,800 Descending Washington Center
05:38AM 39.4169 -77.6439 83° East 404 465 11,500 -1,560 Descending Washington Center
05:39AM 39.4294 -77.5153 83° East 377 434 11,000 -300 Descending Washington Center
05:40AM 39.4394 -77.4108 83° East 336 387 11,000 -720 Level Washington Center
05:40AM 39.4333 -77.3167 95° East 283 326 9,800 -1,740 Descending Potomac TRACON
05:41AM 39.4167 -77.2500 108° East 277 319 8,100 -900 Descending Potomac TRACON
05:42AM 39.3500 -77.1667 136° Southeast 271 312 8,000 -1,080 Descending Potomac TRACON
05:43AM 39.3167 -77.1000 123° Southeast 258 297 6,000 -1,980 Descending Potomac TRACON
05:44AM 39.2667 -77.0333 134° Southeast 244 281 4,100 -1,440 Descending Potomac TRACON
05:45AM 39.2167 -76.9667 134° Southeast 224 258 3,100 -600 Descending Potomac TRACON
05:46AM 39.1833 -76.9167 131° Southeast 214 246 3,000 -300 Descending Potomac TRACON
05:47AM 39.1833 -76.8500 90° East 180 207 2,600 -600 Descending Potomac TRACON
05:48AM 39.1833 -76.8000 90° East 129 148 1,900 -720 Descending Potomac TRACON
05:49AM 39.1833 -76.7500 90° East 125 144 1,200 -720 Descending Potomac TRACON
05:50AM 39.1833 -76.7000 90° East 128 147 500 -720 Descending Potomac TRACON
05:52AM 39.1667 -76.6667 142° Southeast  Level FlightAware Approximate
05:59AM 39.1754 -76.6683 142° Southeast  Level Estimated
06:00AM 39.1754 -76.6683 142° Southeast  Level Estimated
06:01AM 39.1754 -76.6683 142° Southeast  Level Estimated
06:02AM 39.1754 -76.6683 142° Southeast  Level Estimated
06:03AM 39.1754 -76.6683 142° Southeast  Level Estimated